createdAt,value
2023-05-05T00:01:48.146Z,18.90
2023-05-05T00:04:19.394Z,18.90
2023-05-05T00:06:49.656Z,19.00
2023-05-05T00:09:20.203Z,19.00
2023-05-05T00:11:50.347Z,19.10
2023-05-05T00:14:20.582Z,19.10
2023-05-05T00:16:50.834Z,19.10
2023-05-05T00:19:21.123Z,19.20
2023-05-05T00:21:51.411Z,19.20
2023-05-05T00:24:21.626Z,19.20
2023-05-05T00:26:52.490Z,19.30
2023-05-05T00:29:22.753Z,19.30
2023-05-05T00:31:55.651Z,19.30
2023-05-05T00:34:25.836Z,19.40
2023-05-05T00:36:56.409Z,19.40
2023-05-05T00:39:27.278Z,19.40
2023-05-05T00:41:57.494Z,19.50
2023-05-05T00:44:46.770Z,19.50
2023-05-05T00:47:18.416Z,19.60
2023-05-05T00:49:48.752Z,19.60
2023-05-05T00:52:18.990Z,19.60
2023-05-05T00:54:50.408Z,19.60
2023-05-05T00:57:21.336Z,19.70
2023-05-05T00:59:53.536Z,19.70
2023-05-05T01:02:24.484Z,19.70
2023-05-05T01:04:54.908Z,19.70
2023-05-05T01:07:46.900Z,19.70
2023-05-05T01:10:43.242Z,19.80
2023-05-05T01:13:34.479Z,19.80
2023-05-05T01:16:25.992Z,19.90
2023-05-05T01:19:22.117Z,19.90
2023-05-05T01:22:02.317Z,19.90
2023-05-05T01:24:52.869Z,19.90
2023-05-05T01:27:51.994Z,20.00
2023-05-05T01:30:48.383Z,20.00
2023-05-05T01:33:25.128Z,20.00
2023-05-05T01:36:05.346Z,20.00
2023-05-05T01:38:42.390Z,20.00
2023-05-05T01:41:23.082Z,20.10
2023-05-05T01:43:54.977Z,20.10
2023-05-05T01:46:27.346Z,20.10
2023-05-05T01:48:59.387Z,20.10
2023-05-05T01:51:30.883Z,20.10
2023-05-05T01:54:04.363Z,20.10
2023-05-05T01:56:36.869Z,20.20
2023-05-05T01:59:08.740Z,20.20
2023-05-05T02:01:46.298Z,20.20
2023-05-05T02:04:19.795Z,20.20
2023-05-05T02:06:53.349Z,20.30
2023-05-05T02:09:27.381Z,20.30
2023-05-05T02:12:02.469Z,20.30
2023-05-05T02:14:34.165Z,20.30
2023-05-05T02:17:05.868Z,20.30
2023-05-05T02:19:44.764Z,20.30
2023-05-05T02:22:17.073Z,20.40
2023-05-05T02:24:47.785Z,20.30
2023-05-05T02:27:21.236Z,20.40
2023-05-05T02:29:55.768Z,20.40
2023-05-05T02:32:49.351Z,20.40
2023-05-05T02:35:25.311Z,20.40
2023-05-05T02:38:04.170Z,20.40
2023-05-05T02:40:40.221Z,20.40
2023-05-05T02:43:17.051Z,20.40
2023-05-05T02:45:47.407Z,20.40
2023-05-05T02:48:18.002Z,20.50
2023-05-05T02:50:48.455Z,20.40
2023-05-05T02:53:18.891Z,20.50
2023-05-05T02:55:59.099Z,20.50
2023-05-05T02:58:44.885Z,20.50
2023-05-05T03:01:35.941Z,20.40
2023-05-05T03:04:19.631Z,20.40
2023-05-05T03:06:56.723Z,20.30
2023-05-05T03:09:40.106Z,20.20
2023-05-05T03:12:15.954Z,20.20
2023-05-05T03:14:48.582Z,20.20
2023-05-05T03:17:22.118Z,20.20
2023-05-05T03:19:52.978Z,20.10
2023-05-05T03:22:23.373Z,20.10
2023-05-05T03:24:53.954Z,20.10
2023-05-05T03:27:24.202Z,20.10
2023-05-05T03:29:54.473Z,20.10
2023-05-05T03:32:27.616Z,20.20
2023-05-05T03:34:57.788Z,20.30
2023-05-05T03:37:28.090Z,20.30
2023-05-05T03:39:58.306Z,20.40
2023-05-05T03:42:28.822Z,20.40
2023-05-05T03:44:59.054Z,20.40
2023-05-05T03:47:29.434Z,20.50
2023-05-05T03:49:59.621Z,20.50
2023-05-05T03:52:29.879Z,20.50
2023-05-05T03:55:01.918Z,20.50
2023-05-05T03:57:32.122Z,20.60
2023-05-05T04:00:02.884Z,20.60
2023-05-05T04:02:33.219Z,20.60
2023-05-05T04:05:04.130Z,20.60
2023-05-05T04:07:34.424Z,20.70
2023-05-05T04:10:04.770Z,20.70
2023-05-05T04:12:34.942Z,20.60
2023-05-05T04:15:05.344Z,20.70
2023-05-05T04:17:35.658Z,20.70
2023-05-05T04:20:07.200Z,20.70
2023-05-05T04:22:37.606Z,20.80
2023-05-05T04:25:08.538Z,20.80
2023-05-05T04:27:38.736Z,20.80
2023-05-05T04:30:09.867Z,20.80
2023-05-05T04:32:40.480Z,20.80
2023-05-05T04:35:11.226Z,20.80
2023-05-05T04:37:41.653Z,20.80
2023-05-05T04:40:12.874Z,20.80
2023-05-05T04:42:43.188Z,20.80
2023-05-05T04:45:15.094Z,20.80
2023-05-05T04:47:45.391Z,20.90
2023-05-05T04:50:16.477Z,20.90
2023-05-05T04:52:46.696Z,20.90
2023-05-05T04:55:16.992Z,20.90
2023-05-05T04:57:47.219Z,21.00
2023-05-05T05:00:18.724Z,21.00
2023-05-05T05:02:49.126Z,21.00
2023-05-05T05:05:19.458Z,21.00
2023-05-05T05:07:49.620Z,21.00
2023-05-05T05:10:19.869Z,21.10
2023-05-05T05:12:53.012Z,21.10
2023-05-05T05:15:23.219Z,21.00
2023-05-05T05:17:53.459Z,21.10
2023-05-05T05:20:23.754Z,21.10
2023-05-05T05:22:54.050Z,21.10
2023-05-05T05:25:24.238Z,21.10
2023-05-05T05:28:08.357Z,21.10
2023-05-05T05:30:39.659Z,21.10
2023-05-05T05:33:09.942Z,21.20
2023-05-05T05:35:40.361Z,21.20
2023-05-05T05:38:10.975Z,21.20
2023-05-05T05:40:41.132Z,21.20
2023-05-05T05:43:11.305Z,21.20
2023-05-05T05:45:41.509Z,21.20
2023-05-05T05:48:12.213Z,21.20
2023-05-05T05:50:42.754Z,21.20
2023-05-05T05:53:13.228Z,21.20
2023-05-05T05:55:43.781Z,21.20
2023-05-05T05:58:15.159Z,21.20
2023-05-05T06:00:45.587Z,21.30
2023-05-05T06:03:16.178Z,21.30
2023-05-05T06:05:48.433Z,21.30
2023-05-05T06:08:27.581Z,21.30
2023-05-05T06:10:57.794Z,21.30
2023-05-05T06:13:28.015Z,21.20
2023-05-05T06:15:58.219Z,21.20
2023-05-05T06:18:28.469Z,21.20
2023-05-05T06:20:58.933Z,21.20
2023-05-05T06:23:29.273Z,21.20
2023-05-05T06:25:59.534Z,21.20
2023-05-05T06:28:29.804Z,21.20
2023-05-05T06:31:00.143Z,21.10
2023-05-05T06:33:30.362Z,21.10
2023-05-05T06:36:00.486Z,21.10
2023-05-05T06:38:31.235Z,21.10
2023-05-05T06:41:01.464Z,21.20
2023-05-05T06:43:32.575Z,21.10
2023-05-05T06:46:02.975Z,21.10
2023-05-05T06:48:33.237Z,21.10
2023-05-05T06:51:03.807Z,21.10
2023-05-05T06:53:34.362Z,21.10
2023-05-05T06:56:04.901Z,21.10
2023-05-05T06:58:35.114Z,21.10
2023-05-05T07:01:05.704Z,21.10
2023-05-05T07:03:36.005Z,21.10
2023-05-05T07:06:06.288Z,21.10
2023-05-05T07:08:36.766Z,21.20
2023-05-05T07:11:06.979Z,21.20
2023-05-05T07:13:37.342Z,21.20
2023-05-05T07:16:08.265Z,21.20
2023-05-05T07:18:38.529Z,21.20
2023-05-05T07:21:08.960Z,21.20
2023-05-05T07:23:39.657Z,21.20
2023-05-05T07:26:09.928Z,21.20
2023-05-05T07:28:40.249Z,21.20
2023-05-05T07:31:10.458Z,21.20
2023-05-05T07:33:40.796Z,21.20
2023-05-05T07:36:11.265Z,21.30
2023-05-05T07:38:41.501Z,21.30
2023-05-05T07:41:13.317Z,21.20
2023-05-05T07:43:44.598Z,21.30
2023-05-05T07:46:15.531Z,21.20
2023-05-05T07:48:45.709Z,21.30
2023-05-05T07:51:15.956Z,21.30
2023-05-05T07:53:46.432Z,21.30
2023-05-05T07:56:16.711Z,21.30
2023-05-05T07:58:47.415Z,21.30
2023-05-05T08:01:21.047Z,21.20
2023-05-05T08:03:51.704Z,21.20
2023-05-05T08:06:26.624Z,21.20
2023-05-05T08:08:57.570Z,21.20
2023-05-05T08:11:29.608Z,21.20
2023-05-05T08:14:00.825Z,21.20
2023-05-05T08:16:30.993Z,21.20
2023-05-05T08:19:02.941Z,21.20
2023-05-05T08:21:35.298Z,21.20
2023-05-05T08:24:06.671Z,21.20
2023-05-05T08:26:37.321Z,21.10
2023-05-05T08:29:08.408Z,21.10
2023-05-05T08:31:40.777Z,21.10
2023-05-05T08:34:11.611Z,21.10
2023-05-05T08:36:43.998Z,21.10
2023-05-05T08:39:14.997Z,21.10
2023-05-05T08:41:46.494Z,21.10
2023-05-05T08:44:17.667Z,21.10
2023-05-05T08:46:49.411Z,21.10
2023-05-05T08:49:21.611Z,21.00
2023-05-05T08:51:55.275Z,21.10
2023-05-05T08:54:30.698Z,21.10
2023-05-05T08:57:05.113Z,21.10
2023-05-05T08:59:37.244Z,21.00
2023-05-05T09:02:09.763Z,21.10
2023-05-05T09:04:41.155Z,21.00
2023-05-05T09:07:12.388Z,21.00
2023-05-05T09:09:43.901Z,21.00
2023-05-05T09:12:14.199Z,21.00
2023-05-05T09:14:44.410Z,21.00
2023-05-05T09:17:27.974Z,21.00
2023-05-05T09:20:08.730Z,21.00
2023-05-05T09:22:40.396Z,21.00
2023-05-05T09:25:13.818Z,21.00
2023-05-05T09:27:53.082Z,21.00
2023-05-05T09:30:29.495Z,21.00
2023-05-05T09:32:59.875Z,21.00
2023-05-05T09:35:30.112Z,21.00
2023-05-05T09:38:13.448Z,20.90
2023-05-05T09:40:54.426Z,20.90
2023-05-05T09:43:26.249Z,20.90
2023-05-05T09:46:09.158Z,20.90
2023-05-05T09:48:39.326Z,20.90
2023-05-05T09:51:09.584Z,20.90
2023-05-05T09:53:44.207Z,20.90
2023-05-05T09:56:15.199Z,20.90
2023-05-05T09:58:45.479Z,20.80
2023-05-05T10:01:25.937Z,20.80
2023-05-05T10:03:56.369Z,20.90
2023-05-05T10:06:43.711Z,20.80
2023-05-05T10:09:13.886Z,20.90
2023-05-05T10:11:49.271Z,20.90
2023-05-05T10:14:21.459Z,20.80
2023-05-05T10:16:54.449Z,20.80
2023-05-05T10:19:26.119Z,20.80
2023-05-05T10:22:00.854Z,20.80
2023-05-05T10:24:59.617Z,20.80
2023-05-05T10:27:35.575Z,20.80
2023-05-05T10:30:09.963Z,20.80
2023-05-05T10:33:04.010Z,20.80
2023-05-05T10:35:44.177Z,20.80
2023-05-05T10:38:15.823Z,20.80
2023-05-05T10:40:51.163Z,20.80
2023-05-05T10:43:22.280Z,20.80
2023-05-05T10:45:53.973Z,20.80
2023-05-05T10:48:47.966Z,20.80
2023-05-05T10:52:02.977Z,20.80
2023-05-05T10:54:46.469Z,20.80
2023-05-05T10:57:21.369Z,20.70
2023-05-05T10:59:52.643Z,20.70
2023-05-05T11:02:31.822Z,20.70
2023-05-05T11:05:20.157Z,20.80
2023-05-05T11:07:53.463Z,20.70
2023-05-05T11:10:25.569Z,20.70
2023-05-05T11:13:04.652Z,20.70
2023-05-05T11:15:39.463Z,20.70
2023-05-05T11:18:10.360Z,20.70
2023-05-05T11:20:45.255Z,20.70
2023-05-05T11:23:24.042Z,20.70
2023-05-05T11:25:55.999Z,20.70
2023-05-05T11:28:33.383Z,20.70
2023-05-05T11:31:07.571Z,20.70
2023-05-05T11:33:40.953Z,20.70
2023-05-05T11:36:21.753Z,20.70
2023-05-05T11:38:59.731Z,20.70
2023-05-05T11:42:02.574Z,20.70
2023-05-05T11:44:37.423Z,20.70
2023-05-05T11:47:07.576Z,20.70
2023-05-05T11:49:39.944Z,20.70
2023-05-05T11:52:11.990Z,20.70
2023-05-05T11:54:50.787Z,20.80
2023-05-05T11:57:29.115Z,20.70
2023-05-05T12:00:01.984Z,20.80
2023-05-05T12:02:33.091Z,20.80
2023-05-05T12:05:04.528Z,20.80
2023-05-05T12:07:35.812Z,20.80
2023-05-05T12:10:06.682Z,20.80
2023-05-05T12:12:42.188Z,20.80
2023-05-05T12:15:12.809Z,20.80
2023-05-05T12:17:47.484Z,20.70
2023-05-05T12:20:17.916Z,20.70
2023-05-05T12:22:48.746Z,20.70
2023-05-05T12:25:19.286Z,20.70
2023-05-05T12:27:55.875Z,20.70
2023-05-05T12:30:26.456Z,20.70
2023-05-05T12:33:05.200Z,20.60
2023-05-05T12:35:36.866Z,20.60
2023-05-05T12:38:07.503Z,20.60
2023-05-05T12:40:55.491Z,20.60
2023-05-05T12:43:38.050Z,20.50
2023-05-05T12:46:12.644Z,20.50
2023-05-05T12:48:48.389Z,20.50
2023-05-05T12:51:24.902Z,20.40
2023-05-05T12:54:05.448Z,20.40
2023-05-05T12:56:42.327Z,20.40
2023-05-05T12:59:14.539Z,20.40
2023-05-05T13:01:58.021Z,20.40
2023-05-05T13:04:30.124Z,20.40
2023-05-05T13:07:17.155Z,20.30
2023-05-05T13:09:48.714Z,20.40
2023-05-05T13:12:23.328Z,20.30
2023-05-05T13:14:55.457Z,20.30
2023-05-05T13:17:25.754Z,20.20
2023-05-05T13:19:55.896Z,20.20
2023-05-05T13:22:26.170Z,20.20
2023-05-05T13:24:56.393Z,20.20
2023-05-05T13:27:26.746Z,20.20
2023-05-05T13:29:56.969Z,20.10
2023-05-05T13:32:27.697Z,20.10
2023-05-05T13:34:57.921Z,20.10
2023-05-05T13:37:28.302Z,20.10
2023-05-05T13:40:00.908Z,20.00
2023-05-05T13:42:31.154Z,20.00
2023-05-05T13:45:01.409Z,20.00
2023-05-05T13:47:31.635Z,20.00
2023-05-05T13:50:01.813Z,19.90
2023-05-05T13:52:32.567Z,19.90
2023-05-05T13:55:03.669Z,19.90
2023-05-05T13:57:34.191Z,19.90
2023-05-05T14:00:06.007Z,19.90
2023-05-05T14:02:36.358Z,19.90
2023-05-05T14:05:07.044Z,19.80
2023-05-05T14:07:38.022Z,19.80
2023-05-05T14:10:09.201Z,19.80
2023-05-05T14:12:39.439Z,19.80
2023-05-05T14:15:10.453Z,19.70
2023-05-05T14:17:41.604Z,19.70
2023-05-05T14:20:12.526Z,19.70
2023-05-05T14:22:43.964Z,19.70
2023-05-05T14:25:14.308Z,19.70
2023-05-05T14:27:44.672Z,19.70
2023-05-05T14:30:15.358Z,19.70
2023-05-05T14:32:45.789Z,19.60
2023-05-05T14:35:16.079Z,19.60
2023-05-05T14:37:46.317Z,19.60
2023-05-05T14:40:16.504Z,19.60
2023-05-05T14:42:46.972Z,19.50
2023-05-05T14:45:17.422Z,19.50
2023-05-05T14:47:48.490Z,19.50
2023-05-05T14:50:18.722Z,19.50
2023-05-05T14:52:48.978Z,19.50
2023-05-05T14:55:19.288Z,19.40
2023-05-05T14:57:49.562Z,19.40
2023-05-05T15:00:20.051Z,19.40
2023-05-05T15:02:50.449Z,19.40
2023-05-05T15:05:20.626Z,19.40
2023-05-05T15:07:51.003Z,19.40
2023-05-05T15:10:22.052Z,19.40
2023-05-05T15:12:53.125Z,19.30
2023-05-05T15:15:23.395Z,19.30
2023-05-05T15:17:54.118Z,19.30
2023-05-05T15:20:24.302Z,19.30
2023-05-05T15:22:54.805Z,19.30
2023-05-05T15:25:25.278Z,19.20
2023-05-05T15:27:55.614Z,19.20
2023-05-05T15:30:25.861Z,19.20
2023-05-05T15:32:56.673Z,19.20
2023-05-05T15:35:27.205Z,19.10
2023-05-05T15:37:57.400Z,19.10
2023-05-05T15:40:27.720Z,19.10
2023-05-05T15:42:57.957Z,19.10
2023-05-05T15:45:28.223Z,19.10
2023-05-05T15:47:58.585Z,19.10
2023-05-05T15:50:28.807Z,19.00
2023-05-05T15:52:59.092Z,19.00
2023-05-05T15:55:29.787Z,19.00
2023-05-05T15:58:00.959Z,19.00
2023-05-05T16:00:32.994Z,18.90
2023-05-05T16:03:03.338Z,18.90
2023-05-05T16:05:33.688Z,18.90
2023-05-05T16:08:03.956Z,18.90
2023-05-05T16:10:34.157Z,18.90
2023-05-05T16:13:04.431Z,18.80
2023-05-05T16:15:34.689Z,18.80
2023-05-05T16:18:04.874Z,18.80
2023-05-05T16:20:35.134Z,18.80
2023-05-05T16:23:05.362Z,18.80
2023-05-05T16:25:35.684Z,18.80
2023-05-05T16:28:05.951Z,18.70
2023-05-05T16:30:36.976Z,18.70
2023-05-05T16:33:08.287Z,18.70
2023-05-05T16:35:38.497Z,18.70
2023-05-05T16:38:11.945Z,18.60
2023-05-05T16:40:42.593Z,18.60
2023-05-05T16:43:12.844Z,18.60
2023-05-05T16:45:43.078Z,18.60
2023-05-05T16:48:14.006Z,18.60
2023-05-05T16:50:44.330Z,18.60
2023-05-05T16:53:14.738Z,18.50
2023-05-05T16:55:44.960Z,18.50
2023-05-05T16:58:15.205Z,18.50
2023-05-05T17:00:48.354Z,18.50
2023-05-05T17:03:19.420Z,18.40
2023-05-05T17:05:54.980Z,18.40
2023-05-05T17:08:30.932Z,18.40
2023-05-05T17:11:01.469Z,18.40
2023-05-05T17:13:31.729Z,18.40
2023-05-05T17:16:02.096Z,18.40
2023-05-05T17:18:32.473Z,18.30
2023-05-05T17:21:03.158Z,18.30
2023-05-05T17:23:33.581Z,18.30
2023-05-05T17:26:04.673Z,18.30
2023-05-05T17:28:35.125Z,18.30
2023-05-05T17:31:05.322Z,18.30
2023-05-05T17:33:35.544Z,18.20
2023-05-05T17:36:05.827Z,18.20
2023-05-05T17:38:36.042Z,18.20
2023-05-05T17:41:06.251Z,18.20
2023-05-05T17:43:36.552Z,18.20
2023-05-05T17:46:06.948Z,18.10
2023-05-05T17:48:37.262Z,18.10
2023-05-05T17:51:07.494Z,18.10
2023-05-05T17:53:37.649Z,18.10
2023-05-05T17:56:09.037Z,18.10
2023-05-05T17:58:40.037Z,18.00
2023-05-05T18:01:10.387Z,18.00
2023-05-05T18:03:41.111Z,18.00
2023-05-05T18:06:11.416Z,18.00
2023-05-05T18:08:41.555Z,18.00
2023-05-05T18:11:11.783Z,18.00
2023-05-05T18:13:42.059Z,17.90
2023-05-05T18:16:12.394Z,17.90
2023-05-05T18:18:51.918Z,17.90
2023-05-05T18:21:22.254Z,17.80
2023-05-05T18:23:52.920Z,17.80
2023-05-05T18:26:24.823Z,17.80
2023-05-05T18:28:55.141Z,17.80
2023-05-05T18:31:25.631Z,17.80
2023-05-05T18:33:56.256Z,17.70
2023-05-05T18:36:26.609Z,17.70
2023-05-05T18:38:57.768Z,17.70
2023-05-05T18:41:28.381Z,17.70
2023-05-05T18:43:58.729Z,17.70
2023-05-05T18:46:29.581Z,17.70
2023-05-05T18:48:59.979Z,17.70
2023-05-05T18:51:30.428Z,17.60
2023-05-05T18:54:02.371Z,17.60
2023-05-05T18:56:33.100Z,17.60
2023-05-05T18:59:03.768Z,17.60
2023-05-05T19:01:34.556Z,17.60
2023-05-05T19:04:08.422Z,17.50
2023-05-05T19:06:43.261Z,17.50
2023-05-05T19:09:13.622Z,17.50
2023-05-05T19:11:44.580Z,17.50
2023-05-05T19:14:14.830Z,17.50
2023-05-05T19:16:45.152Z,17.40
2023-05-05T19:19:15.443Z,17.40
2023-05-05T19:21:45.828Z,17.40
2023-05-05T19:24:16.064Z,17.40
2023-05-05T19:26:46.804Z,17.40
2023-05-05T19:29:17.849Z,17.30
2023-05-05T19:31:48.128Z,17.30
2023-05-05T19:34:18.837Z,17.30
2023-05-05T19:36:49.039Z,17.30
2023-05-05T19:39:19.320Z,17.30
2023-05-05T19:41:49.766Z,17.30
2023-05-05T19:44:20.093Z,17.20
2023-05-05T19:46:50.479Z,17.20
2023-05-05T19:49:20.622Z,17.20
2023-05-05T19:51:51.993Z,17.20
2023-05-05T19:54:22.906Z,17.20
2023-05-05T19:56:55.187Z,17.20
2023-05-05T19:59:26.314Z,17.10
2023-05-05T20:01:56.728Z,17.10
2023-05-05T20:04:26.979Z,17.10
2023-05-05T20:06:57.179Z,17.10
2023-05-05T20:09:27.500Z,17.10
2023-05-05T20:12:00.730Z,17.10
2023-05-05T20:14:31.056Z,17.00
2023-05-05T20:17:01.524Z,17.00
2023-05-05T20:19:31.950Z,17.00
2023-05-05T20:22:02.405Z,17.00
2023-05-05T20:24:32.678Z,17.00
2023-05-05T20:27:03.621Z,17.00
2023-05-05T20:29:34.070Z,16.90
2023-05-05T20:32:04.588Z,16.90
2023-05-05T20:34:35.152Z,16.90
2023-05-05T20:37:05.628Z,16.90
2023-05-05T20:39:36.252Z,16.90
2023-05-05T20:42:07.151Z,16.90
2023-05-05T20:44:38.063Z,16.90
2023-05-05T20:47:09.059Z,16.80
2023-05-05T20:49:39.398Z,16.80
2023-05-05T20:52:09.680Z,16.80
2023-05-05T20:54:40.779Z,16.80
2023-05-05T20:57:11.068Z,16.80
2023-05-05T20:59:41.458Z,16.70
2023-05-05T21:02:11.685Z,16.70
2023-05-05T21:04:45.174Z,16.70
2023-05-05T21:07:15.451Z,16.70
2023-05-05T21:09:49.445Z,16.70
2023-05-05T21:12:19.635Z,16.70
2023-05-05T21:14:49.839Z,16.60
2023-05-05T21:17:20.077Z,16.60
2023-05-05T21:19:50.452Z,16.60
2023-05-05T21:22:20.868Z,16.60
2023-05-05T21:24:51.591Z,16.60
2023-05-05T21:27:22.809Z,16.60
2023-05-05T21:29:53.896Z,16.60
2023-05-05T21:32:24.221Z,16.50
2023-05-05T21:34:54.534Z,16.50
2023-05-05T21:37:24.724Z,16.50
2023-05-05T21:39:55.554Z,16.50
2023-05-05T21:42:25.948Z,16.50
2023-05-05T21:44:56.198Z,16.50
2023-05-05T21:47:26.683Z,16.50
2023-05-05T21:49:56.933Z,16.50
2023-05-05T21:52:27.266Z,16.50
2023-05-05T21:54:57.885Z,16.50
2023-05-05T21:57:28.289Z,16.60
2023-05-05T21:59:58.597Z,16.60
2023-05-05T22:02:28.906Z,16.70
2023-05-05T22:04:59.268Z,16.70
2023-05-05T22:07:30.449Z,16.80
2023-05-05T22:10:01.658Z,16.80
2023-05-05T22:12:32.180Z,16.90
2023-05-05T22:15:02.446Z,16.90
2023-05-05T22:17:32.757Z,17.00
2023-05-05T22:20:03.096Z,17.00
2023-05-05T22:22:33.415Z,17.00
2023-05-05T22:25:03.913Z,17.10
2023-05-05T22:27:34.140Z,17.10
2023-05-05T22:30:05.593Z,17.20
2023-05-05T22:32:35.867Z,17.20
2023-05-05T22:35:07.266Z,17.20
2023-05-05T22:37:37.537Z,17.30
2023-05-05T22:40:11.262Z,17.30
2023-05-05T22:42:42.469Z,17.30
2023-05-05T22:45:13.215Z,17.40
2023-05-05T22:47:43.623Z,17.40
2023-05-05T22:50:14.400Z,17.40
2023-05-05T22:52:44.743Z,17.50
2023-05-05T22:55:16.389Z,17.50
2023-05-05T22:57:46.606Z,17.60
2023-05-05T23:00:17.229Z,17.60
2023-05-05T23:02:47.518Z,17.60
2023-05-05T23:05:18.576Z,17.60
2023-05-05T23:07:48.765Z,17.70
2023-05-05T23:10:19.243Z,17.70
2023-05-05T23:12:49.653Z,17.70
2023-05-05T23:15:20.054Z,17.80
2023-05-05T23:17:50.372Z,17.80
2023-05-05T23:20:20.801Z,17.80
2023-05-05T23:22:51.080Z,17.90
2023-05-05T23:25:21.754Z,17.90
2023-05-05T23:27:52.292Z,17.90
2023-05-05T23:30:22.604Z,17.90
2023-05-05T23:32:52.874Z,18.00
2023-05-05T23:35:23.384Z,18.00
2023-05-05T23:37:53.709Z,18.00
2023-05-05T23:40:24.165Z,18.00
2023-05-05T23:43:13.702Z,18.00
2023-05-05T23:46:02.783Z,18.10
2023-05-05T23:48:33.852Z,18.10
2023-05-05T23:51:04.066Z,18.20
2023-05-05T23:53:34.263Z,18.20
2023-05-05T23:56:04.957Z,18.20
2023-05-05T23:58:35.182Z,18.20
